sensor_id;sensor_type;location;lat;lon;timestamp;temperature;humidity
2202;DHT22;1107;48.654;9.250;2023-09-30T00:01:58;16.20;1.00
2202;DHT22;1107;48.654;9.250;2023-09-30T00:04:25;16.20;1.00
2202;DHT22;1107;48.654;9.250;2023-09-30T00:06:53;16.30;1.00
2202;DHT22;1107;48.654;9.250;2023-09-30T00:09:20;16.30;99.90
2202;DHT22;1107;48.654;9.250;2023-09-30T00:11:48;16.30;99.90
2202;DHT22;1107;48.654;9.250;2023-09-30T00:14:15;16.30;99.90
2202;DHT22;1107;48.654;9.250;2023-09-30T00:16:43;16.20;1.00
2202;DHT22;1107;48.654;9.250;2023-09-30T00:19:10;16.20;99.90
2202;DHT22;1107;48.654;9.250;2023-09-30T00:21:37;16.20;99.90
2202;DHT22;1107;48.654;9.250;2023-09-30T00:24:04;16.20;99.90
2202;DHT22;1107;48.654;9.250;2023-09-30T00:26:31;16.10;1.00
2202;DHT22;1107;48.654;9.250;2023-09-30T00:29:00;16.10;1.00
2202;DHT22;1107;48.654;9.250;2023-09-30T00:31:29;16.10;99.90
2202;DHT22;1107;48.654;9.250;2023-09-30T00:33:57;16.10;1.00
2202;DHT22;1107;48.654;9.250;2023-09-30T00:36:23;16.10;1.00
2202;DHT22;1107;48.654;9.250;2023-09-30T00:38:50;16.10;99.90
2202;DHT22;1107;48.654;9.250;2023-09-30T00:41:18;16.10;1.00
2202;DHT22;1107;48.654;9.250;2023-09-30T00:43:46;16.00;1.00
2202;DHT22;1107;48.654;9.250;2023-09-30T00:46:21;16.00;22.40
2202;DHT22;1107;48.654;9.250;2023-09-30T00:48:53;15.90;99.90
2202;DHT22;1107;48.654;9.250;2023-09-30T00:51:20;15.90;1.00
2202;DHT22;1107;48.654;9.250;2023-09-30T00:53:48;15.90;1.00
2202;DHT22;1107;48.654;9.250;2023-09-30T00:56:15;15.80;1.00
2202;DHT22;1107;48.654;9.250;2023-09-30T00:58:45;15.80;1.00
2202;DHT22;1107;48.654;9.250;2023-09-30T01:01:12;15.80;99.90
2202;DHT22;1107;48.654;9.250;2023-09-30T01:03:40;15.80;1.00
2202;DHT22;1107;48.654;9.250;2023-09-30T01:06:07;15.80;1.00
2202;DHT22;1107;48.654;9.250;2023-09-30T01:08:35;15.70;1.00
2202;DHT22;1107;48.654;9.250;2023-09-30T01:11:02;15.70;1.00
2202;DHT22;1107;48.654;9.250;2023-09-30T01:13:32;15.70;1.00
2202;DHT22;1107;48.654;9.250;2023-09-30T01:16:03;15.60;1.00
2202;DHT22;1107;48.654;9.250;2023-09-30T01:18:30;15.60;99.90
2202;DHT22;1107;48.654;9.250;2023-09-30T01:20:59;15.50;99.90
2202;DHT22;1107;48.654;9.250;2023-09-30T01:23:30;15.50;99.90
2202;DHT22;1107;48.654;9.250;2023-09-30T01:25:57;15.40;1.00
2202;DHT22;1107;48.654;9.250;2023-09-30T01:28:24;15.40;99.90
2202;DHT22;1107;48.654;9.250;2023-09-30T01:30:52;15.40;1.00
2202;DHT22;1107;48.654;9.250;2023-09-30T01:33:19;15.50;99.90
2202;DHT22;1107;48.654;9.250;2023-09-30T01:35:46;15.50;99.90
2202;DHT22;1107;48.654;9.250;2023-09-30T01:38:13;15.50;99.90
2202;DHT22;1107;48.654;9.250;2023-09-30T01:40:41;15.50;1.00
2202;DHT22;1107;48.654;9.250;2023-09-30T01:43:09;15.50;1.00
2202;DHT22;1107;48.654;9.250;2023-09-30T01:45:39;15.50;1.00
2202;DHT22;1107;48.654;9.250;2023-09-30T01:48:06;15.50;1.00
2202;DHT22;1107;48.654;9.250;2023-09-30T01:50:36;15.50;1.00
2202;DHT22;1107;48.654;9.250;2023-09-30T01:53:03;15.50;30.60
2202;DHT22;1107;48.654;9.250;2023-09-30T01:55:30;15.50;96.80
2202;DHT22;1107;48.654;9.250;2023-09-30T01:57:59;15.50;99.90
2202;DHT22;1107;48.654;9.250;2023-09-30T02:00:26;15.50;99.90
2202;DHT22;1107;48.654;9.250;2023-09-30T02:02:54;15.40;99.90
2202;DHT22;1107;48.654;9.250;2023-09-30T02:05:21;15.40;99.90
2202;DHT22;1107;48.654;9.250;2023-09-30T02:07:48;15.40;99.90
2202;DHT22;1107;48.654;9.250;2023-09-30T02:10:16;15.30;99.90
2202;DHT22;1107;48.654;9.250;2023-09-30T02:12:44;15.30;99.90
2202;DHT22;1107;48.654;9.250;2023-09-30T02:15:13;15.30;99.90
2202;DHT22;1107;48.654;9.250;2023-09-30T02:17:40;15.30;99.90
2202;DHT22;1107;48.654;9.250;2023-09-30T02:20:11;15.20;99.90
2202;DHT22;1107;48.654;9.250;2023-09-30T02:22:45;15.20;99.90
2202;DHT22;1107;48.654;9.250;2023-09-30T02:25:12;15.10;1.00
2202;DHT22;1107;48.654;9.250;2023-09-30T02:27:39;15.20;1.00
2202;DHT22;1107;48.654;9.250;2023-09-30T02:30:08;15.20;1.00
2202;DHT22;1107;48.654;9.250;2023-09-30T02:32:39;15.20;1.00
2202;DHT22;1107;48.654;9.250;2023-09-30T02:35:07;15.20;1.00
2202;DHT22;1107;48.654;9.250;2023-09-30T02:37:36;15.20;1.00
2202;DHT22;1107;48.654;9.250;2023-09-30T02:40:04;15.20;1.00
2202;DHT22;1107;48.654;9.250;2023-09-30T02:42:34;15.20;1.00
2202;DHT22;1107;48.654;9.250;2023-09-30T02:45:02;15.20;1.00
2202;DHT22;1107;48.654;9.250;2023-09-30T02:47:29;15.20;1.00
2202;DHT22;1107;48.654;9.250;2023-09-30T02:49:58;15.20;1.00
2202;DHT22;1107;48.654;9.250;2023-09-30T02:52:25;15.20;1.00
2202;DHT22;1107;48.654;9.250;2023-09-30T02:54:52;15.20;1.00
2202;DHT22;1107;48.654;9.250;2023-09-30T02:57:19;15.20;1.00
2202;DHT22;1107;48.654;9.250;2023-09-30T02:59:47;15.10;1.00
2202;DHT22;1107;48.654;9.250;2023-09-30T03:02:14;15.10;1.00
2202;DHT22;1107;48.654;9.250;2023-09-30T03:04:43;15.10;1.00
2202;DHT22;1107;48.654;9.250;2023-09-30T03:07:13;15.10;1.00
2202;DHT22;1107;48.654;9.250;2023-09-30T03:09:40;15.10;1.00
2202;DHT22;1107;48.654;9.250;2023-09-30T03:12:07;15.10;1.00
2202;DHT22;1107;48.654;9.250;2023-09-30T03:14:35;15.10;1.00
2202;DHT22;1107;48.654;9.250;2023-09-30T03:17:01;15.00;1.00
2202;DHT22;1107;48.654;9.250;2023-09-30T03:19:29;15.10;1.00
2202;DHT22;1107;48.654;9.250;2023-09-30T03:21:55;15.10;1.00
2202;DHT22;1107;48.654;9.250;2023-09-30T03:24:24;15.10;1.00
2202;DHT22;1107;48.654;9.250;2023-09-30T03:26:52;15.10;1.00
2202;DHT22;1107;48.654;9.250;2023-09-30T03:29:19;15.20;1.00
2202;DHT22;1107;48.654;9.250;2023-09-30T03:31:46;15.20;1.00
2202;DHT22;1107;48.654;9.250;2023-09-30T03:34:14;15.30;1.00
2202;DHT22;1107;48.654;9.250;2023-09-30T03:36:42;15.20;1.00
2202;DHT22;1107;48.654;9.250;2023-09-30T03:39:09;15.20;1.00
2202;DHT22;1107;48.654;9.250;2023-09-30T03:41:41;15.20;1.00
2202;DHT22;1107;48.654;9.250;2023-09-30T03:44:09;15.20;1.00
2202;DHT22;1107;48.654;9.250;2023-09-30T03:46:36;15.20;1.00
2202;DHT22;1107;48.654;9.250;2023-09-30T03:49:03;15.20;1.00
2202;DHT22;1107;48.654;9.250;2023-09-30T03:51:30;15.10;1.00
2202;DHT22;1107;48.654;9.250;2023-09-30T03:53:57;15.20;1.00
2202;DHT22;1107;48.654;9.250;2023-09-30T03:56:24;15.20;1.00
2202;DHT22;1107;48.654;9.250;2023-09-30T03:58:52;15.20;1.00
2202;DHT22;1107;48.654;9.250;2023-09-30T04:01:19;15.10;1.00
2202;DHT22;1107;48.654;9.250;2023-09-30T04:03:46;15.10;1.00
2202;DHT22;1107;48.654;9.250;2023-09-30T04:06:13;15.20;1.00
2202;DHT22;1107;48.654;9.250;2023-09-30T04:08:40;15.10;1.00
2202;DHT22;1107;48.654;9.250;2023-09-30T04:11:09;15.00;1.00
2202;DHT22;1107;48.654;9.250;2023-09-30T04:13:42;15.00;1.00
2202;DHT22;1107;48.654;9.250;2023-09-30T04:16:10;14.90;1.00
2202;DHT22;1107;48.654;9.250;2023-09-30T04:18:37;14.80;1.00
2202;DHT22;1107;48.654;9.250;2023-09-30T04:21:06;14.80;1.00
2202;DHT22;1107;48.654;9.250;2023-09-30T04:23:33;14.80;1.00
2202;DHT22;1107;48.654;9.250;2023-09-30T04:26:02;14.80;1.00
2202;DHT22;1107;48.654;9.250;2023-09-30T04:28:29;14.80;1.00
2202;DHT22;1107;48.654;9.250;2023-09-30T04:30:56;14.70;1.00
2202;DHT22;1107;48.654;9.250;2023-09-30T04:33:25;14.70;1.00
2202;DHT22;1107;48.654;9.250;2023-09-30T04:35:52;14.70;1.00
2202;DHT22;1107;48.654;9.250;2023-09-30T04:38:19;14.70;1.00
2202;DHT22;1107;48.654;9.250;2023-09-30T04:40:46;14.60;1.00
2202;DHT22;1107;48.654;9.250;2023-09-30T04:43:17;14.60;1.00
2202;DHT22;1107;48.654;9.250;2023-09-30T04:45:44;14.50;1.00
2202;DHT22;1107;48.654;9.250;2023-09-30T04:48:12;14.50;1.00
2202;DHT22;1107;48.654;9.250;2023-09-30T04:50:40;14.50;1.00
2202;DHT22;1107;48.654;9.250;2023-09-30T04:53:07;14.40;1.00
2202;DHT22;1107;48.654;9.250;2023-09-30T04:55:35;14.40;1.00
2202;DHT22;1107;48.654;9.250;2023-09-30T04:58:03;14.50;1.00
2202;DHT22;1107;48.654;9.250;2023-09-30T05:00:31;14.50;1.00
2202;DHT22;1107;48.654;9.250;2023-09-30T05:03:00;14.60;1.00
2202;DHT22;1107;48.654;9.250;2023-09-30T05:05:27;14.60;1.00
2202;DHT22;1107;48.654;9.250;2023-09-30T05:07:56;14.60;1.00
2202;DHT22;1107;48.654;9.250;2023-09-30T05:10:24;14.70;1.00
2202;DHT22;1107;48.654;9.250;2023-09-30T05:12:51;14.70;1.00
2202;DHT22;1107;48.654;9.250;2023-09-30T05:15:20;14.70;1.00
2202;DHT22;1107;48.654;9.250;2023-09-30T05:17:48;14.70;1.00
2202;DHT22;1107;48.654;9.250;2023-09-30T05:20:16;14.70;1.00
2202;DHT22;1107;48.654;9.250;2023-09-30T05:22:44;14.80;1.00
2202;DHT22;1107;48.654;9.250;2023-09-30T05:25:13;14.90;1.00
2202;DHT22;1107;48.654;9.250;2023-09-30T05:27:41;14.90;1.00
2202;DHT22;1107;48.654;9.250;2023-09-30T05:30:09;14.90;1.00
2202;DHT22;1107;48.654;9.250;2023-09-30T05:32:36;14.90;1.00
2202;DHT22;1107;48.654;9.250;2023-09-30T05:35:05;14.90;1.00
2202;DHT22;1107;48.654;9.250;2023-09-30T05:37:38;15.00;1.00
2202;DHT22;1107;48.654;9.250;2023-09-30T05:40:06;15.00;1.00
2202;DHT22;1107;48.654;9.250;2023-09-30T05:42:43;15.10;1.00
2202;DHT22;1107;48.654;9.250;2023-09-30T05:45:11;15.10;1.00
2202;DHT22;1107;48.654;9.250;2023-09-30T05:47:38;15.10;1.00
2202;DHT22;1107;48.654;9.250;2023-09-30T05:50:07;15.10;1.00
2202;DHT22;1107;48.654;9.250;2023-09-30T05:52:35;15.20;1.00
2202;DHT22;1107;48.654;9.250;2023-09-30T05:55:03;15.20;1.00
2202;DHT22;1107;48.654;9.250;2023-09-30T05:57:30;15.00;1.00
2202;DHT22;1107;48.654;9.250;2023-09-30T05:59:58;14.90;1.00
2202;DHT22;1107;48.654;9.250;2023-09-30T06:02:25;14.90;1.00
2202;DHT22;1107;48.654;9.250;2023-09-30T06:04:52;14.80;1.00
2202;DHT22;1107;48.654;9.250;2023-09-30T06:07:20;14.80;1.00
2202;DHT22;1107;48.654;9.250;2023-09-30T06:09:47;14.90;1.00
2202;DHT22;1107;48.654;9.250;2023-09-30T06:12:15;14.90;1.00
2202;DHT22;1107;48.654;9.250;2023-09-30T06:14:42;14.90;1.00
2202;DHT22;1107;48.654;9.250;2023-09-30T06:17:10;14.90;1.00
2202;DHT22;1107;48.654;9.250;2023-09-30T06:19:37;14.90;1.00
2202;DHT22;1107;48.654;9.250;2023-09-30T06:22:04;14.90;1.00
2202;DHT22;1107;48.654;9.250;2023-09-30T06:24:31;15.00;1.00
2202;DHT22;1107;48.654;9.250;2023-09-30T06:26:58;15.10;1.00
2202;DHT22;1107;48.654;9.250;2023-09-30T06:29:25;15.20;1.00
2202;DHT22;1107;48.654;9.250;2023-09-30T06:31:52;15.40;1.00
2202;DHT22;1107;48.654;9.250;2023-09-30T06:34:20;15.60;1.00
2202;DHT22;1107;48.654;9.250;2023-09-30T06:36:47;15.70;1.00
2202;DHT22;1107;48.654;9.250;2023-09-30T06:39:15;15.90;1.00
2202;DHT22;1107;48.654;9.250;2023-09-30T06:41:41;16.00;99.90
2202;DHT22;1107;48.654;9.250;2023-09-30T06:44:09;16.20;99.90
2202;DHT22;1107;48.654;9.250;2023-09-30T06:46:36;16.30;1.00
2202;DHT22;1107;48.654;9.250;2023-09-30T06:49:03;16.40;1.00
2202;DHT22;1107;48.654;9.250;2023-09-30T06:51:31;16.50;83.20
2202;DHT22;1107;48.654;9.250;2023-09-30T06:53:58;16.70;99.90
2202;DHT22;1107;48.654;9.250;2023-09-30T06:56:26;16.90;99.90
2202;DHT22;1107;48.654;9.250;2023-09-30T06:58:53;17.10;99.90
2202;DHT22;1107;48.654;9.250;2023-09-30T07:01:20;17.40;1.00
2202;DHT22;1107;48.654;9.250;2023-09-30T07:03:47;17.80;15.90
2202;DHT22;1107;48.654;9.250;2023-09-30T07:06:22;17.90;1.00
2202;DHT22;1107;48.654;9.250;2023-09-30T07:08:51;18.00;99.90
2202;DHT22;1107;48.654;9.250;2023-09-30T07:11:26;18.00;99.90
2202;DHT22;1107;48.654;9.250;2023-09-30T07:13:53;18.00;99.90
2202;DHT22;1107;48.654;9.250;2023-09-30T07:16:20;18.00;99.90
2202;DHT22;1107;48.654;9.250;2023-09-30T07:18:47;18.10;99.90
2202;DHT22;1107;48.654;9.250;2023-09-30T07:21:14;18.40;99.90
2202;DHT22;1107;48.654;9.250;2023-09-30T07:23:41;18.70;99.90
2202;DHT22;1107;48.654;9.250;2023-09-30T07:26:09;19.20;99.90
2202;DHT22;1107;48.654;9.250;2023-09-30T07:28:36;19.50;99.90
2202;DHT22;1107;48.654;9.250;2023-09-30T07:31:03;19.30;99.90
2202;DHT22;1107;48.654;9.250;2023-09-30T07:33:30;19.10;99.90
2202;DHT22;1107;48.654;9.250;2023-09-30T07:35:57;19.00;99.90
2202;DHT22;1107;48.654;9.250;2023-09-30T07:38:24;19.00;99.90
2202;DHT22;1107;48.654;9.250;2023-09-30T07:40:51;19.00;99.90
2202;DHT22;1107;48.654;9.250;2023-09-30T07:43:19;19.10;99.90
2202;DHT22;1107;48.654;9.250;2023-09-30T07:45:47;19.10;99.90
2202;DHT22;1107;48.654;9.250;2023-09-30T07:48:14;19.10;99.90
2202;DHT22;1107;48.654;9.250;2023-09-30T07:50:41;19.00;99.90
2202;DHT22;1107;48.654;9.250;2023-09-30T07:53:09;19.10;99.90
2202;DHT22;1107;48.654;9.250;2023-09-30T07:55:37;19.00;99.90
2202;DHT22;1107;48.654;9.250;2023-09-30T07:58:05;19.50;99.90
2202;DHT22;1107;48.654;9.250;2023-09-30T08:00:34;19.70;99.90
2202;DHT22;1107;48.654;9.250;2023-09-30T08:03:02;20.20;99.90
2202;DHT22;1107;48.654;9.250;2023-09-30T08:05:29;20.40;99.90
2202;DHT22;1107;48.654;9.250;2023-09-30T08:07:56;20.10;99.90
2202;DHT22;1107;48.654;9.250;2023-09-30T08:10:23;20.10;99.90
2202;DHT22;1107;48.654;9.250;2023-09-30T08:12:49;20.20;99.90
2202;DHT22;1107;48.654;9.250;2023-09-30T08:15:17;20.20;99.90
2202;DHT22;1107;48.654;9.250;2023-09-30T08:17:45;20.50;99.90
2202;DHT22;1107;48.654;9.250;2023-09-30T08:20:12;21.10;99.90
2202;DHT22;1107;48.654;9.250;2023-09-30T08:22:39;21.90;99.90
2202;DHT22;1107;48.654;9.250;2023-09-30T08:25:07;22.50;99.90
2202;DHT22;1107;48.654;9.250;2023-09-30T08:27:36;22.50;99.90
2202;DHT22;1107;48.654;9.250;2023-09-30T08:30:04;22.50;99.90
2202;DHT22;1107;48.654;9.250;2023-09-30T08:32:32;22.00;99.90
2202;DHT22;1107;48.654;9.250;2023-09-30T08:35:01;21.60;99.90
2202;DHT22;1107;48.654;9.250;2023-09-30T08:37:28;21.80;99.90
2202;DHT22;1107;48.654;9.250;2023-09-30T08:39:55;22.30;99.90
2202;DHT22;1107;48.654;9.250;2023-09-30T08:42:22;22.90;99.90
2202;DHT22;1107;48.654;9.250;2023-09-30T08:44:51;23.30;99.90
2202;DHT22;1107;48.654;9.250;2023-09-30T08:47:20;23.40;99.90
2202;DHT22;1107;48.654;9.250;2023-09-30T08:49:48;23.40;99.90
2202;DHT22;1107;48.654;9.250;2023-09-30T08:52:22;23.10;99.90
2202;DHT22;1107;48.654;9.250;2023-09-30T08:54:49;22.90;99.90
2202;DHT22;1107;48.654;9.250;2023-09-30T08:57:18;22.50;99.90
2202;DHT22;1107;48.654;9.250;2023-09-30T08:59:46;22.10;99.90
2202;DHT22;1107;48.654;9.250;2023-09-30T09:02:15;22.60;99.90
2202;DHT22;1107;48.654;9.250;2023-09-30T09:04:42;23.30;99.90
2202;DHT22;1107;48.654;9.250;2023-09-30T09:07:10;24.40;99.90
2202;DHT22;1107;48.654;9.250;2023-09-30T09:09:38;24.90;99.90
2202;DHT22;1107;48.654;9.250;2023-09-30T09:12:06;25.50;99.90
2202;DHT22;1107;48.654;9.250;2023-09-30T09:14:38;26.10;99.90
2202;DHT22;1107;48.654;9.250;2023-09-30T09:17:07;26.00;99.90
2202;DHT22;1107;48.654;9.250;2023-09-30T09:19:34;26.60;99.90
2202;DHT22;1107;48.654;9.250;2023-09-30T09:22:02;27.00;99.90
2202;DHT22;1107;48.654;9.250;2023-09-30T09:24:32;26.60;99.90
2202;DHT22;1107;48.654;9.250;2023-09-30T09:27:08;26.30;99.90
2202;DHT22;1107;48.654;9.250;2023-09-30T09:29:35;25.90;99.90
2202;DHT22;1107;48.654;9.250;2023-09-30T09:32:12;26.00;99.90
2202;DHT22;1107;48.654;9.250;2023-09-30T09:34:40;25.90;99.90
2202;DHT22;1107;48.654;9.250;2023-09-30T09:37:16;25.80;99.90
2202;DHT22;1107;48.654;9.250;2023-09-30T09:39:50;26.10;99.90
2202;DHT22;1107;48.654;9.250;2023-09-30T09:42:26;26.70;99.90
2202;DHT22;1107;48.654;9.250;2023-09-30T09:44:55;26.80;99.90
2202;DHT22;1107;48.654;9.250;2023-09-30T09:47:24;26.50;99.90
2202;DHT22;1107;48.654;9.250;2023-09-30T09:49:51;26.50;99.90
2202;DHT22;1107;48.654;9.250;2023-09-30T09:52:19;27.60;99.90
2202;DHT22;1107;48.654;9.250;2023-09-30T09:54:46;28.70;99.90
2202;DHT22;1107;48.654;9.250;2023-09-30T09:57:16;29.30;99.90
2202;DHT22;1107;48.654;9.250;2023-09-30T09:59:46;29.80;99.90
2202;DHT22;1107;48.654;9.250;2023-09-30T10:02:15;30.10;99.90
2202;DHT22;1107;48.654;9.250;2023-09-30T10:04:44;30.20;99.90
2202;DHT22;1107;48.654;9.250;2023-09-30T10:07:14;30.40;99.90
2202;DHT22;1107;48.654;9.250;2023-09-30T10:09:47;30.60;99.90
2202;DHT22;1107;48.654;9.250;2023-09-30T10:12:16;31.10;98.70
2202;DHT22;1107;48.654;9.250;2023-09-30T10:14:44;31.60;98.30
2202;DHT22;1107;48.654;9.250;2023-09-30T10:17:11;32.00;92.70
2202;DHT22;1107;48.654;9.250;2023-09-30T10:20:03;32.40;92.70
2202;DHT22;1107;48.654;9.250;2023-09-30T10:22:32;32.90;89.50
2202;DHT22;1107;48.654;9.250;2023-09-30T10:24:59;32.80;75.30
2202;DHT22;1107;48.654;9.250;2023-09-30T10:27:36;33.00;70.80
2202;DHT22;1107;48.654;9.250;2023-09-30T10:30:14;33.30;64.00
2202;DHT22;1107;48.654;9.250;2023-09-30T10:33:10;32.80;54.20
2202;DHT22;1107;48.654;9.250;2023-09-30T10:35:56;31.20;41.80
2202;DHT22;1107;48.654;9.250;2023-09-30T10:38:39;29.50;31.30
2202;DHT22;1107;48.654;9.250;2023-09-30T10:41:09;28.20;24.90
2202;DHT22;1107;48.654;9.250;2023-09-30T10:43:39;26.90;20.20
2202;DHT22;1107;48.654;9.250;2023-09-30T10:46:32;26.00;21.00
2202;DHT22;1107;48.654;9.250;2023-09-30T10:49:30;25.30;24.40
2202;DHT22;1107;48.654;9.250;2023-09-30T10:51:59;24.90;26.10
2202;DHT22;1107;48.654;9.250;2023-09-30T10:54:27;24.70;28.90
2202;DHT22;1107;48.654;9.250;2023-09-30T10:56:55;24.50;29.70
2202;DHT22;1107;48.654;9.250;2023-09-30T10:59:26;24.40;34.40
2202;DHT22;1107;48.654;9.250;2023-09-30T11:01:54;24.30;31.40
2202;DHT22;1107;48.654;9.250;2023-09-30T11:04:21;24.20;30.30
2202;DHT22;1107;48.654;9.250;2023-09-30T11:06:48;23.90;32.00
2202;DHT22;1107;48.654;9.250;2023-09-30T11:09:17;23.90;30.80
2202;DHT22;1107;48.654;9.250;2023-09-30T11:11:46;23.70;32.70
2202;DHT22;1107;48.654;9.250;2023-09-30T11:14:19;23.60;35.20
2202;DHT22;1107;48.654;9.250;2023-09-30T11:16:47;23.40;37.90
2202;DHT22;1107;48.654;9.250;2023-09-30T11:19:16;23.40;42.70
2202;DHT22;1107;48.654;9.250;2023-09-30T11:21:43;23.30;42.80
2202;DHT22;1107;48.654;9.250;2023-09-30T11:24:12;23.40;42.50
2202;DHT22;1107;48.654;9.250;2023-09-30T11:26:39;23.30;40.60
2202;DHT22;1107;48.654;9.250;2023-09-30T11:29:08;23.40;41.20
2202;DHT22;1107;48.654;9.250;2023-09-30T11:31:39;23.40;43.20
2202;DHT22;1107;48.654;9.250;2023-09-30T11:34:07;23.70;47.00
2202;DHT22;1107;48.654;9.250;2023-09-30T11:36:36;25.50;50.00
2202;DHT22;1107;48.654;9.250;2023-09-30T11:39:04;27.50;52.80
2202;DHT22;1107;48.654;9.250;2023-09-30T11:41:35;29.20;50.80
2202;DHT22;1107;48.654;9.250;2023-09-30T11:44:05;30.30;47.00
2202;DHT22;1107;48.654;9.250;2023-09-30T11:46:47;31.20;46.50
2202;DHT22;1107;48.654;9.250;2023-09-30T11:49:25;31.80;42.80
2202;DHT22;1107;48.654;9.250;2023-09-30T11:51:55;31.70;34.70
2202;DHT22;1107;48.654;9.250;2023-09-30T11:54:22;31.10;28.00
2202;DHT22;1107;48.654;9.250;2023-09-30T11:56:54;29.60;32.80
2202;DHT22;1107;48.654;9.250;2023-09-30T11:59:21;28.30;15.50
2202;DHT22;1107;48.654;9.250;2023-09-30T12:01:49;27.60;15.20
2202;DHT22;1107;48.654;9.250;2023-09-30T12:04:17;26.90;14.60
2202;DHT22;1107;48.654;9.250;2023-09-30T12:06:45;26.30;13.60
2202;DHT22;1107;48.654;9.250;2023-09-30T12:09:13;25.90;14.40
2202;DHT22;1107;48.654;9.250;2023-09-30T12:11:41;25.60;15.30
2202;DHT22;1107;48.654;9.250;2023-09-30T12:14:10;25.30;17.20
2202;DHT22;1107;48.654;9.250;2023-09-30T12:16:38;25.10;17.00
2202;DHT22;1107;48.654;9.250;2023-09-30T12:19:05;25.20;18.30
2202;DHT22;1107;48.654;9.250;2023-09-30T12:21:32;25.10;19.40
2202;DHT22;1107;48.654;9.250;2023-09-30T12:24:00;24.80;20.50
2202;DHT22;1107;48.654;9.250;2023-09-30T12:26:28;24.70;22.20
2202;DHT22;1107;48.654;9.250;2023-09-30T12:28:56;24.90;25.40
2202;DHT22;1107;48.654;9.250;2023-09-30T12:31:23;24.80;23.30
2202;DHT22;1107;48.654;9.250;2023-09-30T12:33:49;24.60;21.90
2202;DHT22;1107;48.654;9.250;2023-09-30T12:36:17;24.20;21.60
2202;DHT22;1107;48.654;9.250;2023-09-30T12:38:44;24.00;21.60
2202;DHT22;1107;48.654;9.250;2023-09-30T12:41:13;23.90;23.00
2202;DHT22;1107;48.654;9.250;2023-09-30T12:43:42;24.00;24.30
2202;DHT22;1107;48.654;9.250;2023-09-30T12:46:09;25.00;29.20
2202;DHT22;1107;48.654;9.250;2023-09-30T12:48:38;26.70;31.50
2202;DHT22;1107;48.654;9.250;2023-09-30T12:51:05;28.20;32.60
2202;DHT22;1107;48.654;9.250;2023-09-30T12:53:35;29.40;34.00
2202;DHT22;1107;48.654;9.250;2023-09-30T12:56:02;29.90;30.70
2202;DHT22;1107;48.654;9.250;2023-09-30T12:58:29;30.50;32.80
2202;DHT22;1107;48.654;9.250;2023-09-30T13:00:58;30.70;28.80
2202;DHT22;1107;48.654;9.250;2023-09-30T13:03:25;31.20;27.40
2202;DHT22;1107;48.654;9.250;2023-09-30T13:05:51;31.60;28.10
2202;DHT22;1107;48.654;9.250;2023-09-30T13:08:19;31.90;27.10
2202;DHT22;1107;48.654;9.250;2023-09-30T13:10:46;32.10;26.60
2202;DHT22;1107;48.654;9.250;2023-09-30T13:13:16;30.40;15.50
2202;DHT22;1107;48.654;9.250;2023-09-30T13:15:43;28.80;8.70
2202;DHT22;1107;48.654;9.250;2023-09-30T13:18:11;27.60;5.10
2202;DHT22;1107;48.654;9.250;2023-09-30T13:20:38;26.70;4.60
2202;DHT22;1107;48.654;9.250;2023-09-30T13:23:06;26.00;4.70
2202;DHT22;1107;48.654;9.250;2023-09-30T13:25:32;25.50;5.40
2202;DHT22;1107;48.654;9.250;2023-09-30T13:28:00;25.30;5.80
2202;DHT22;1107;48.654;9.250;2023-09-30T13:30:27;25.10;7.10
2202;DHT22;1107;48.654;9.250;2023-09-30T13:32:54;25.30;7.40
2202;DHT22;1107;48.654;9.250;2023-09-30T13:35:22;25.10;7.70
2202;DHT22;1107;48.654;9.250;2023-09-30T13:37:50;24.90;5.30
2202;DHT22;1107;48.654;9.250;2023-09-30T13:40:17;24.80;3.40
2202;DHT22;1107;48.654;9.250;2023-09-30T13:42:44;24.60;4.70
2202;DHT22;1107;48.654;9.250;2023-09-30T13:45:12;24.50;6.20
2202;DHT22;1107;48.654;9.250;2023-09-30T13:47:42;25.30;10.80
2202;DHT22;1107;48.654;9.250;2023-09-30T13:50:09;26.50;13.10
2202;DHT22;1107;48.654;9.250;2023-09-30T13:52:38;27.50;13.30
2202;DHT22;1107;48.654;9.250;2023-09-30T13:55:05;28.30;13.70
2202;DHT22;1107;48.654;9.250;2023-09-30T13:57:32;29.20;16.00
2202;DHT22;1107;48.654;9.250;2023-09-30T14:00:00;28.50;12.10
2202;DHT22;1107;48.654;9.250;2023-09-30T14:02:28;28.30;9.50
2202;DHT22;1107;48.654;9.250;2023-09-30T14:04:55;27.40;6.60
2202;DHT22;1107;48.654;9.250;2023-09-30T14:07:22;26.40;4.30
2202;DHT22;1107;48.654;9.250;2023-09-30T14:09:50;25.70;3.20
2202;DHT22;1107;48.654;9.250;2023-09-30T14:12:18;25.10;3.70
2202;DHT22;1107;48.654;9.250;2023-09-30T14:14:45;24.80;3.90
2202;DHT22;1107;48.654;9.250;2023-09-30T14:17:12;24.60;5.60
2202;DHT22;1107;48.654;9.250;2023-09-30T14:19:40;24.30;4.70
2202;DHT22;1107;48.654;9.250;2023-09-30T14:22:07;24.50;7.20
2202;DHT22;1107;48.654;9.250;2023-09-30T14:24:35;24.70;9.30
2202;DHT22;1107;48.654;9.250;2023-09-30T14:27:04;24.90;10.90
2202;DHT22;1107;48.654;9.250;2023-09-30T14:29:31;25.10;11.00
2202;DHT22;1107;48.654;9.250;2023-09-30T14:31:58;25.10;8.30
2202;DHT22;1107;48.654;9.250;2023-09-30T14:34:25;25.20;9.60
2202;DHT22;1107;48.654;9.250;2023-09-30T14:36:52;25.50;8.90
2202;DHT22;1107;48.654;9.250;2023-09-30T14:39:19;25.60;10.10
2202;DHT22;1107;48.654;9.250;2023-09-30T14:41:46;26.00;10.50
2202;DHT22;1107;48.654;9.250;2023-09-30T14:44:14;26.10;9.30
2202;DHT22;1107;48.654;9.250;2023-09-30T14:46:42;26.10;8.10
2202;DHT22;1107;48.654;9.250;2023-09-30T14:49:10;26.10;8.10
2202;DHT22;1107;48.654;9.250;2023-09-30T14:51:37;26.00;8.30
2202;DHT22;1107;48.654;9.250;2023-09-30T14:54:05;25.80;7.20
2202;DHT22;1107;48.654;9.250;2023-09-30T14:56:32;25.60;6.30
2202;DHT22;1107;48.654;9.250;2023-09-30T14:58:59;25.50;8.50
2202;DHT22;1107;48.654;9.250;2023-09-30T15:01:27;25.30;8.60
2202;DHT22;1107;48.654;9.250;2023-09-30T15:03:54;25.20;9.70
2202;DHT22;1107;48.654;9.250;2023-09-30T15:06:22;24.80;8.70
2202;DHT22;1107;48.654;9.250;2023-09-30T15:08:50;24.40;8.70
2202;DHT22;1107;48.654;9.250;2023-09-30T15:11:17;23.90;6.80
2202;DHT22;1107;48.654;9.250;2023-09-30T15:13:44;23.50;7.60
2202;DHT22;1107;48.654;9.250;2023-09-30T15:16:15;23.20;7.50
2202;DHT22;1107;48.654;9.250;2023-09-30T15:18:44;23.00;8.40
2202;DHT22;1107;48.654;9.250;2023-09-30T15:21:12;23.00;11.20
2202;DHT22;1107;48.654;9.250;2023-09-30T15:23:39;23.00;13.10
2202;DHT22;1107;48.654;9.250;2023-09-30T15:26:06;23.00;13.20
2202;DHT22;1107;48.654;9.250;2023-09-30T15:28:33;22.90;13.90
2202;DHT22;1107;48.654;9.250;2023-09-30T15:31:00;22.80;15.20
2202;DHT22;1107;48.654;9.250;2023-09-30T15:33:28;22.80;15.40
2202;DHT22;1107;48.654;9.250;2023-09-30T15:35:56;22.70;15.70
2202;DHT22;1107;48.654;9.250;2023-09-30T15:38:23;22.60;15.60
2202;DHT22;1107;48.654;9.250;2023-09-30T15:40:52;22.50;16.10
2202;DHT22;1107;48.654;9.250;2023-09-30T15:43:19;22.30;16.90
2202;DHT22;1107;48.654;9.250;2023-09-30T15:45:48;22.30;17.10
2202;DHT22;1107;48.654;9.250;2023-09-30T15:48:15;22.20;19.00
2202;DHT22;1107;48.654;9.250;2023-09-30T15:50:42;22.10;18.80
2202;DHT22;1107;48.654;9.250;2023-09-30T15:53:10;22.00;19.80
2202;DHT22;1107;48.654;9.250;2023-09-30T15:55:37;21.80;20.80
2202;DHT22;1107;48.654;9.250;2023-09-30T15:58:05;21.80;23.00
2202;DHT22;1107;48.654;9.250;2023-09-30T16:00:35;21.70;24.60
2202;DHT22;1107;48.654;9.250;2023-09-30T16:03:03;21.50;24.90
2202;DHT22;1107;48.654;9.250;2023-09-30T16:05:32;21.40;28.00
2202;DHT22;1107;48.654;9.250;2023-09-30T16:07:58;21.30;29.40
2202;DHT22;1107;48.654;9.250;2023-09-30T16:10:27;21.20;34.50
2202;DHT22;1107;48.654;9.250;2023-09-30T16:12:54;21.10;36.70
2202;DHT22;1107;48.654;9.250;2023-09-30T16:15:21;21.00;41.60
2202;DHT22;1107;48.654;9.250;2023-09-30T16:17:48;20.80;45.90